< < Back
Terminal Aerodrome Forecast


Current Version              Previous Versions:   1  2  3  4  5  6  7  8  9  

Terminal Aerodrome Forecast

520
FTUS44 KBMX 301500 AAC
TAFMGM
TAF AMD
KMGM 301546Z 3016/0112 07004KT P6SM OVC024
     FM301730 06004KT P6SM SCT025
     FM010400 00000KT P6SM SKC=

Latest METAR

475
SAUS80 KWBC 301600 RRB
MTRMGM
METAR KMGM 301553Z 08004KT 10SM OVC024 23/19 A2996 RMK AO2 SLP141
T02330189


USA.gov is the U.S. government's official web portal to all federal, state and local government web resources and services.